Auburndale, Massachusetts
Current Conditions -  °F | °C
As of 6:54 PM on Saturday 25 Oct 2014 (Local Time) from KBOS Reporting Station
Scattered Clouds Scattered Clouds  
Wind Chill: 60°   Ceiling: Unl
Heat Index: 60°   Visibility: 10mi
Dew Point: 43°   Wind: 8mph
Humidity: 53%   Direction: 260°W
Pressure: 29.59"   Gusts: NA
Location:  42.35°N, 70.95°W
Report Text: KBOS 252254Z 26007KT 10SM FEW055 SCT270 16/06 A2959 RMK AO2 SLP021 T01560061
Loading
Personal Weather Stations






























Interactive Weather Map
Tropical Storm Tracking
New forecast layout! Learn more

10-Day Weather Forecast

Advertisements
Track Severe Weather on mobile